Time;durP1;ratioP1;P1;durP2;ratioP2;P2;SDS_P1;SDS_P2;PMS_P1;PMS_P2;Temp;Humidity;BMP_temperature;BMP_pressure;BME280_temperature;BME280_humidity;BME280_pressure;Samples;Min_cycle;Max_cycle;Signal;HPM_P1;HPM_P2
2022/03/18 00:04:01;;;;;;;6.68;3.25;;;9.30;92.70;;;;;;10167460;28;20054;-61
2022/03/18 00:08:53;;;;;;;5.57;2.95;;;9.30;92.60;;;;;;10167853;28;20028;-63
2022/03/18 00:13:44;;;;;;;4.47;2.70;;;9.30;92.50;;;;;;10172168;28;20021;-64
2022/03/18 00:18:34;;;;;;;6.30;2.95;;;9.30;92.60;;;;;;10168575;28;20085;-63
2022/03/18 00:23:25;;;;;;;7.28;2.90;;;9.30;92.40;;;;;;10181815;28;20039;-63
2022/03/18 00:28:16;;;;;;;4.28;2.58;;;9.20;92.20;;;;;;10170838;28;20422;-62
2022/03/18 00:33:06;;;;;;;3.65;2.25;;;9.20;92.10;;;;;;10162898;28;20036;-62
2022/03/18 00:37:57;;;;;;;4.32;2.03;;;9.20;92.10;;;;;;10153175;28;20028;-63
2022/03/18 00:42:48;;;;;;;4.50;1.67;;;9.10;92.00;;;;;;10171018;28;20119;-62
2022/03/18 00:52:48;;;;;;;4.70;1.80;;;9.10;91.90;;;;;;10161112;28;20035;-63
2022/03/18 00:57:39;;;;;;;5.10;2.70;;;9.10;91.90;;;;;;10171567;28;20252;-62
2022/03/18 01:02:29;;;;;;;4.25;1.80;;;9.10;91.80;;;;;;10170558;28;20105;-62
2022/03/18 01:07:20;;;;;;;4.82;1.95;;;9.10;91.70;;;;;;10168305;28;20514;-62
2022/03/18 01:12:11;;;;;;;5.93;2.33;;;9.00;91.70;;;;;;10153695;28;20032;-63
2022/03/18 01:17:02;;;;;;;3.35;2.42;;;9.00;91.80;;;;;;10171528;28;20020;-63
2022/03/18 01:21:52;;;;;;;5.82;2.35;;;9.00;91.70;;;;;;10170067;28;20043;-62
2022/03/18 01:26:43;;;;;;;4.78;2.28;;;9.00;91.60;;;;;;10151800;28;20031;-63
2022/03/18 01:31:34;;;;;;;3.10;2.10;;;9.00;91.60;;;;;;10171187;28;20152;-63
2022/03/18 01:36:25;;;;;;;5.60;2.17;;;9.00;91.50;;;;;;10175719;28;20388;-63
2022/03/18 01:41:15;;;;;;;4.30;2.00;;;8.90;91.60;;;;;;10166294;28;20264;-62
2022/03/18 01:46:07;;;;;;;7.72;2.67;;;8.90;91.60;;;;;;10169973;28;20580;-62
2022/03/18 01:50:58;;;;;;;3.28;2.15;;;9.00;91.60;;;;;;10171927;28;20012;-62
2022/03/18 01:55:48;;;;;;;4.22;2.10;;;8.90;91.50;;;;;;10171553;28;20068;-62
2022/03/18 02:00:39;;;;;;;3.78;2.40;;;8.90;91.50;;;;;;10177542;28;20048;-62
2022/03/18 02:05:31;;;;;;;11.27;2.85;;;8.90;91.50;;;;;;10173564;28;20294;-62
2022/03/18 02:10:21;;;;;;;5.40;2.40;;;8.90;91.50;;;;;;10173270;28;20652;-63
2022/03/18 02:15:12;;;;;;;5.45;1.85;;;8.90;91.50;;;;;;10170216;28;20039;-62
2022/03/18 02:20:04;;;;;;;3.83;1.80;;;8.90;91.40;;;;;;10152646;28;20036;-62
2022/03/18 02:24:55;;;;;;;6.50;2.40;;;8.80;91.30;;;;;;10169989;28;20333;-61
2022/03/18 02:29:47;;;;;;;3.30;2.20;;;8.80;91.40;;;;;;10169136;28;20035;-64
2022/03/18 02:34:39;;;;;;;4.38;1.77;;;8.80;91.30;;;;;;10172869;28;20054;-61
2022/03/18 02:39:30;;;;;;;3.25;2.00;;;8.80;91.40;;;;;;10176640;28;20112;-63
2022/03/18 02:44:21;;;;;;;4.15;1.90;;;8.80;91.40;;;;;;10176559;28;20042;-63
2022/03/18 02:49:12;;;;;;;5.68;2.15;;;8.70;91.30;;;;;;10185343;28;20036;-63
2022/03/18 02:54:05;;;;;;;7.93;2.30;;;8.60;91.40;;;;;;10163475;28;20032;-63
2022/03/18 02:58:56;;;;;;;6.15;1.83;;;8.70;91.40;;;;;;10175225;28;20024;-62
2022/03/18 03:03:46;;;;;;;4.72;2.38;;;8.60;91.30;;;;;;10175510;28;21055;-62
2022/03/18 03:08:37;;;;;;;3.65;2.28;;;8.60;91.30;;;;;;10175129;28;20555;-62
2022/03/18 03:13:28;;;;;;;4.32;1.83;;;8.60;91.40;;;;;;10174881;28;20430;-61
2022/03/18 03:18:18;;;;;;;6.35;2.22;;;8.50;91.40;;;;;;10175015;28;20565;-62
2022/03/18 03:23:09;;;;;;;4.22;1.95;;;8.50;91.40;;;;;;10174667;28;20238;-61
2022/03/18 03:28:00;;;;;;;2.85;2.53;;;8.50;91.40;;;;;;10174825;28;20074;-62
2022/03/18 03:32:51;;;;;;;5.35;2.30;;;8.50;91.40;;;;;;10161575;28;20081;-62
2022/03/18 03:37:43;;;;;;;3.03;1.50;;;8.50;91.40;;;;;;10172291;28;20020;-62
2022/03/18 03:47:34;;;;;;;3.10;1.90;;;8.50;91.40;;;;;;10857313;22;20190;-63
2022/03/18 03:52:24;;;;;;;3.58;2.10;;;8.50;91.30;;;;;;10114649;28;20174;-65
2022/03/18 03:57:15;;;;;;;6.00;2.10;;;8.50;91.30;;;;;;10116263;28;20029;-62
2022/03/18 04:02:05;;;;;;;5.85;2.33;;;8.50;91.30;;;;;;10129663;28;20050;-62
2022/03/18 04:06:56;;;;;;;5.03;2.42;;;8.50;91.30;;;;;;10130751;28;20497;-62
2022/03/18 04:11:47;;;;;;;4.07;2.00;;;8.40;91.30;;;;;;10131357;28;20024;-62
2022/03/18 04:16:38;;;;;;;4.32;2.03;;;8.40;91.40;;;;;;10114869;28;20519;-62
2022/03/18 04:21:30;;;;;;;6.97;3.28;;;8.40;91.30;;;;;;10132891;28;20147;-62
2022/03/18 04:26:20;;;;;;;3.25;1.70;;;8.40;91.40;;;;;;10132710;28;20078;-62
2022/03/18 04:31:12;;;;;;;3.63;1.88;;;8.30;91.40;;;;;;10132820;28;20044;-64
2022/03/18 04:36:03;;;;;;;5.00;1.73;;;8.30;91.50;;;;;;10130570;28;20643;-62
2022/03/18 04:40:54;;;;;;;4.70;2.38;;;8.30;91.50;;;;;;10132742;28;20040;-62
2022/03/18 04:45:45;;;;;;;3.65;2.38;;;8.30;91.50;;;;;;10132798;28;20044;-62
2022/03/18 04:50:35;;;;;;;6.38;2.53;;;8.30;91.40;;;;;;10132276;28;20085;-62
2022/03/18 04:55:26;;;;;;;5.68;2.20;;;8.30;91.40;;;;;;10132953;28;20025;-62
2022/03/18 05:00:20;;;;;;;2.65;1.63;;;8.20;91.40;;;;;;10132215;28;20659;-62
2022/03/18 05:05:11;;;;;;;3.60;2.22;;;8.20;91.40;;;;;;10114351;28;20036;-62
2022/03/18 05:10:01;;;;;;;3.83;2.22;;;8.10;91.50;;;;;;10129417;28;20025;-63
2022/03/18 05:14:53;;;;;;;9.43;2.58;;;8.20;91.50;;;;;;10132778;28;20033;-63
2022/03/18 05:19:44;;;;;;;3.58;1.88;;;8.20;91.50;;;;;;10131313;28;20476;-64
2022/03/18 05:24:35;;;;;;;7.03;2.25;;;8.20;91.50;;;;;;10137171;28;20104;-62
2022/03/18 05:29:27;;;;;;;5.55;2.35;;;8.20;91.60;;;;;;10139892;28;20063;-64
2022/03/18 05:34:17;;;;;;;6.35;2.28;;;8.10;91.60;;;;;;10140860;28;20140;-62
2022/03/18 05:39:08;;;;;;;5.57;2.00;;;8.10;91.60;;;;;;10121814;28;20772;-65
2022/03/18 05:43:59;;;;;;;5.25;2.55;;;8.10;91.70;;;;;;10139594;28;20032;-64
2022/03/18 05:48:50;;;;;;;3.58;2.55;;;8.10;91.80;;;;;;10139751;28;20055;-63
2022/03/18 05:53:41;;;;;;;5.47;3.45;;;8.10;91.70;;;;;;10138681;28;20404;-63
2022/03/18 05:58:32;;;;;;;6.38;2.90;;;8.10;91.70;;;;;;10138172;28;20127;-63
2022/03/18 06:03:24;;;;;;;11.75;3.60;;;8.00;91.80;;;;;;10137549;28;20453;-65
2022/03/18 06:13:24;;;;;;;5.07;2.28;;;8.10;91.80;;;;;;10130848;28;20100;-64
2022/03/18 06:18:15;;;;;;;9.98;2.50;;;8.10;91.70;;;;;;10132945;28;20245;-64
2022/03/18 06:23:06;;;;;;;5.47;2.88;;;8.10;91.80;;;;;;10130881;28;20044;-63
2022/03/18 06:27:57;;;;;;;3.78;2.00;;;8.10;91.90;;;;;;10137294;28;20013;-63
2022/03/18 06:32:47;;;;;;;5.05;2.30;;;8.10;91.80;;;;;;10136114;28;20020;-62
2022/03/18 06:37:38;;;;;;;5.10;2.70;;;8.10;91.90;;;;;;10136513;28;20028;-63
2022/03/18 06:42:29;;;;;;;4.65;2.33;;;8.20;91.70;;;;;;10136024;28;20036;-62
2022/03/18 06:47:20;;;;;;;5.07;2.65;;;8.30;91.80;;;;;;10117891;28;20545;-63
2022/03/18 06:52:10;;;;;;;5.50;3.58;;;8.30;91.80;;;;;;10137135;28;20074;-63
2022/03/18 06:57:01;;;;;;;7.22;2.70;;;8.30;91.70;;;;;;10140292;28;20029;-62
2022/03/18 07:01:53;;;;;;;7.32;2.58;;;8.30;91.70;;;;;;10138109;28;20044;-63
2022/03/18 07:06:46;;;;;;;4.35;2.95;;;8.30;91.70;;;;;;10130784;28;20043;-64
2022/03/18 07:11:36;;;;;;;7.07;2.70;;;8.30;91.60;;;;;;10129765;28;20433;-62
2022/03/18 07:21:36;;;;;;;6.47;2.63;;;8.40;91.60;;;;;;10135534;28;20215;-63
2022/03/18 07:26:28;;;;;;;7.38;2.70;;;8.50;91.50;;;;;;10132105;28;20647;-62
2022/03/18 07:31:18;;;;;;;3.60;2.22;;;8.60;91.50;;;;;;10136715;28;20488;-64
2022/03/18 07:36:09;;;;;;;9.50;3.30;;;8.70;91.50;;;;;;10118946;28;20021;-61
2022/03/18 07:41:00;;;;;;;7.30;2.58;;;8.70;91.30;;;;;;10133400;28;20036;-59
2022/03/18 07:45:51;;;;;;;6.10;2.40;;;8.80;91.30;;;;;;10132694;28;20071;-61
2022/03/18 07:50:42;;;;;;;7.15;2.88;;;8.80;91.30;;;;;;10130340;28;20520;-61
2022/03/18 07:55:35;;;;;;;6.38;2.45;;;8.90;91.20;;;;;;10133305;28;20035;-61
2022/03/18 08:00:26;;;;;;;3.78;3.03;;;9.00;91.20;;;;;;10132981;28;20093;-62
2022/03/18 08:05:17;;;;;;;5.30;3.00;;;9.10;91.10;;;;;;10133140;28;20020;-62
2022/03/18 08:10:10;;;;;;;8.55;3.40;;;9.20;91.00;;;;;;10132591;28;20037;-62
2022/03/18 08:15:04;;;;;;;5.90;2.85;;;9.10;91.00;;;;;;10133594;28;20111;-61
2022/03/18 08:19:56;;;;;;;5.43;2.83;;;9.20;91.00;;;;;;10133545;28;20150;-62
2022/03/18 08:24:48;;;;;;;8.23;3.10;;;9.30;91.00;;;;;;10133550;28;20020;-61
2022/03/18 08:29:38;;;;;;;6.68;3.42;;;9.30;90.90;;;;;;10117222;28;20552;-64
2022/03/18 08:34:29;;;;;;;6.85;3.65;;;9.40;90.80;;;;;;10131278;28;20024;-64
2022/03/18 08:39:20;;;;;;;7.80;3.28;;;9.40;90.70;;;;;;10130589;28;20100;-59
2022/03/18 08:44:10;;;;;;;8.88;3.90;;;9.30;90.80;;;;;;10129304;28;20024;-60
2022/03/18 08:49:01;;;;;;;7.72;3.08;;;9.30;91.10;;;;;;10129133;28;20041;-61
2022/03/18 08:53:52;;;;;;;7.63;2.70;;;9.40;90.80;;;;;;10128913;28;20478;-60
2022/03/18 08:58:43;;;;;;;11.38;4.32;;;9.50;90.70;;;;;;10129834;28;20036;-62
2022/03/18 09:03:33;;;;;;;10.40;4.35;;;9.50;90.60;;;;;;10118265;28;20040;-64
2022/03/18 09:08:24;;;;;;;8.25;3.83;;;9.70;90.60;;;;;;10103217;28;20025;-62
2022/03/18 09:13:15;;;;;;;8.80;4.78;;;9.80;90.40;;;;;;10104725;28;20025;-64
2022/03/18 09:18:06;;;;;;;10.85;4.68;;;10.00;90.30;;;;;;10097520;28;20585;-63
2022/03/18 09:22:56;;;;;;;9.93;4.28;;;10.20;90.10;;;;;;10084676;28;20041;-64
2022/03/18 09:27:47;;;;;;;7.03;4.05;;;10.30;90.00;;;;;;10116004;28;20024;-64
2022/03/18 09:32:40;;;;;;;7.97;4.28;;;10.40;89.70;;;;;;10112611;28;20540;-61
2022/03/18 09:37:32;;;;;;;8.13;4.50;;;10.50;89.70;;;;;;10112280;28;20311;-60
2022/03/18 09:42:23;;;;;;;8.48;5.05;;;10.50;89.40;;;;;;10117974;28;20041;-63
2022/03/18 09:47:13;;;;;;;9.68;5.63;;;10.50;89.50;;;;;;10111514;28;20500;-60
2022/03/18 09:52:05;;;;;;;9.10;4.25;;;10.90;89.50;;;;;;10112737;28;20339;-60
2022/03/18 09:56:56;;;;;;;7.28;4.72;;;10.70;89.00;;;;;;10117036;28;20363;-61
2022/03/18 10:01:48;;;;;;;9.38;4.85;;;10.90;89.10;;;;;;10131987;28;20415;-64
2022/03/18 10:06:42;;;;;;;12.00;5.28;;;10.90;88.30;;;;;;10106366;28;20540;-64
2022/03/18 10:11:36;;;;;;;9.40;5.10;;;11.10;88.30;;;;;;10137247;28;20115;-64
2022/03/18 10:16:48;;;;;;;9.45;4.95;;;11.10;88.10;;;;;;10138511;28;20398;-65
2022/03/18 10:21:53;;;;;;;9.35;5.25;;;11.20;87.40;;;;;;10137599;28;20410;-65
2022/03/18 10:26:43;;;;;;;9.80;6.17;;;11.40;86.70;;;;;;10136693;28;20043;-65
2022/03/18 10:31:34;;;;;;;11.50;6.05;;;11.40;87.20;;;;;;10136512;28;20506;-63
2022/03/18 10:41:37;;;;;;;10.02;5.68;;;11.40;87.10;;;;;;10121467;28;20043;-63
2022/03/18 10:46:28;;;;;;;14.13;5.88;;;11.70;86.70;;;;;;10111436;28;20037;-63
2022/03/18 10:51:21;;;;;;;10.38;5.57;;;11.70;86.30;;;;;;10110699;28;20036;-71
2022/03/18 10:56:12;;;;;;;10.50;6.38;;;11.70;86.50;;;;;;10105055;28;20032;-62
2022/03/18 11:01:03;;;;;;;13.93;6.25;;;11.60;86.40;;;;;;10111466;28;20111;-62
2022/03/18 11:05:55;;;;;;;13.25;5.53;;;11.60;86.40;;;;;;10109450;28;20076;-61
2022/03/18 11:11:07;;;;;;;9.88;5.10;;;11.70;86.00;;;;;;10110840;28;20126;-64
2022/03/18 11:15:59;;;;;;;15.32;6.00;;;11.70;85.90;;;;;;10101981;28;20418;-62
2022/03/18 11:20:51;;;;;;;11.43;5.95;;;11.90;85.50;;;;;;10084766;28;20036;-64
2022/03/18 11:25:45;;;;;;;9.88;5.78;;;11.90;85.60;;;;;;10087653;28;20051;-64
2022/03/18 11:30:36;;;;;;;11.07;5.88;;;12.00;85.20;;;;;;10104280;28;20024;-61
2022/03/18 11:35:27;;;;;;;12.02;6.65;;;12.10;85.10;;;;;;10102003;28;20051;-65
2022/03/18 11:40:23;;;;;;;12.15;7.10;;;12.10;84.50;;;;;;10103806;28;20092;-64
2022/03/18 11:45:33;;;;;;;11.40;7.15;;;12.40;84.50;;;;;;10101989;28;20051;-63
2022/03/18 11:50:43;;;;;;;16.48;7.40;;;12.60;83.00;;;;;;10115325;28;20041;-63
2022/03/18 11:55:34;;;;;;;16.02;9.40;;;12.40;83.10;;;;;;10122174;28;20312;-64
2022/03/18 12:00:31;;;;;;;15.18;9.07;;;12.70;83.60;;;;;;10117639;28;20116;-64
2022/03/18 12:05:29;;;;;;;17.38;9.70;;;12.90;83.20;;;;;;10138244;28;20063;-66
2022/03/18 12:10:36;;;;;;;20.95;9.38;;;13.10;82.00;;;;;;10109303;28;20534;-63
2022/03/18 12:15:27;;;;;;;16.60;9.60;;;13.10;81.00;;;;;;10132486;28;20032;-65
2022/03/18 12:20:28;;;;;;;16.33;9.10;;;13.10;81.50;;;;;;10140635;28;20190;-64
2022/03/18 12:25:22;;;;;;;17.15;9.07;;;13.10;80.60;;;;;;10119866;28;20033;-65
2022/03/18 12:30:25;;;;;;;19.15;11.07;;;13.10;81.30;;;;;;10130892;28;20028;-66
2022/03/18 12:35:18;;;;;;;20.13;9.88;;;13.20;80.60;;;;;;10113831;28;20120;-66
2022/03/18 12:40:11;;;;;;;17.52;9.70;;;13.30;80.60;;;;;;10133416;28;20040;-64
2022/03/18 12:45:02;;;;;;;14.50;8.60;;;13.40;80.10;;;;;;10132450;28;20059;-65
2022/03/18 12:49:53;;;;;;;17.70;10.75;;;13.70;80.20;;;;;;10130092;28;20039;-65
2022/03/18 12:55:07;;;;;;;21.42;10.43;;;13.70;79.50;;;;;;10114336;28;20039;-66
2022/03/18 12:59:58;;;;;;;24.52;11.25;;;13.90;76.90;;;;;;10118210;28;20493;-67
2022/03/18 13:04:58;;;;;;;17.88;10.63;;;14.00;78.50;;;;;;10091341;28;20037;-66
2022/03/18 13:09:49;;;;;;;16.45;11.35;;;14.30;77.90;;;;;;10090645;28;20025;-66
2022/03/18 13:14:42;;;;;;;21.60;11.43;;;14.40;77.70;;;;;;10121198;28;20088;-66
2022/03/18 13:19:41;;;;;;;22.08;12.43;;;14.30;77.40;;;;;;10110774;28;20016;-67
2022/03/18 13:24:32;;;;;;;20.77;10.98;;;14.20;76.90;;;;;;10136588;28;20113;-65
2022/03/18 13:32:50;;;;;;;18.30;11.68;;;14.40;77.20;;;;;;10139420;28;20070;-62
2022/03/18 13:34:36;;;;;;;21.25;12.02;;;14.80;77.30;;;;;;10118868;28;20039;-61
2022/03/18 13:39:27;;;;;;;17.83;10.75;;;14.80;76.10;;;;;;10108723;28;20056;-65
2022/03/18 13:44:19;;;;;;;19.42;11.10;;;15.10;76.10;;;;;;10091631;28;20029;-66
2022/03/18 13:49:15;;;;;;;21.95;10.73;;;15.30;75.50;;;;;;10116842;28;20040;-63
2022/03/18 13:54:10;;;;;;;17.30;10.85;;;15.50;75.00;;;;;;10123405;28;20027;-65
2022/03/18 13:59:15;;;;;;;20.15;12.13;;;15.30;74.30;;;;;;10118282;28;20249;-61
2022/03/18 14:04:06;;;;;;;17.30;10.00;;;15.20;73.20;;;;;;10119292;28;20045;-64
2022/03/18 14:09:12;;;;;;;18.52;10.73;;;15.20;74.10;;;;;;10107975;28;20639;-66
2022/03/18 14:14:23;;;;;;;19.73;11.32;;;15.00;73.10;;;;;;10112508;28;20044;-61
2022/03/18 14:19:13;;;;;;;17.90;9.63;;;14.90;73.70;;;;;;10120416;28;20120;-63
2022/03/18 14:24:04;;;;;;;16.25;9.95;;;15.10;73.90;;;;;;10118808;28;20051;-64
2022/03/18 14:28:55;;;;;;;14.32;8.98;;;15.10;73.50;;;;;;10134872;28;20092;-63
2022/03/18 14:33:46;;;;;;;17.13;9.00;;;15.10;73.60;;;;;;10134463;28;20316;-60
2022/03/18 14:38:36;;;;;;;15.57;7.90;;;15.10;73.40;;;;;;10142946;28;20025;-62
2022/03/18 14:43:28;;;;;;;14.25;7.80;;;14.70;73.30;;;;;;10122779;28;20068;-61
2022/03/18 14:48:19;;;;;;;16.33;8.70;;;14.60;73.40;;;;;;10083267;28;20048;-61
2022/03/18 14:53:12;;;;;;;18.67;8.45;;;14.70;73.30;;;;;;10113605;28;20502;-62
2022/03/18 14:58:05;;;;;;;18.75;9.93;;;14.80;72.80;;;;;;10113267;28;20037;-62
2022/03/18 15:02:56;;;;;;;12.88;8.15;;;14.70;72.70;;;;;;10113660;28;20043;-64
2022/03/18 15:07:46;;;;;;;16.02;8.60;;;14.80;72.60;;;;;;10114019;28;20025;-62
2022/03/18 15:12:38;;;;;;;13.65;7.85;;;15.00;72.10;;;;;;10113456;28;20094;-63
2022/03/18 15:17:31;;;;;;;15.75;8.25;;;15.20;71.60;;;;;;10107445;28;20636;-62
2022/03/18 15:22:21;;;;;;;13.32;8.65;;;15.50;71.20;;;;;;10117704;28;20091;-62
2022/03/18 15:27:14;;;;;;;20.33;11.32;;;15.10;71.00;;;;;;10120308;28;20174;-63
2022/03/18 15:32:05;;;;;;;18.73;9.57;;;14.90;71.30;;;;;;10115923;28;20027;-62
2022/03/18 15:36:56;;;;;;;18.38;10.70;;;14.90;71.10;;;;;;10121141;28;20454;-62
2022/03/18 15:41:48;;;;;;;15.45;9.25;;;15.00;70.90;;;;;;10108945;28;20072;-63
2022/03/18 15:46:39;;;;;;;13.35;8.55;;;14.80;70.60;;;;;;10137802;28;20068;-62
2022/03/18 15:51:30;;;;;;;14.27;7.80;;;14.70;70.80;;;;;;10140312;28;20510;-64
2022/03/18 15:56:21;;;;;;;14.13;8.18;;;14.70;70.80;;;;;;10119176;28;20031;-61
2022/03/18 16:01:12;;;;;;;14.88;7.97;;;14.40;71.10;;;;;;10147392;28;20076;-62
2022/03/18 16:06:03;;;;;;;24.33;10.38;;;14.20;71.20;;;;;;10141884;28;20101;-62
2022/03/18 16:10:57;;;;;;;16.33;9.68;;;14.20;71.40;;;;;;10142565;28;20120;-64
2022/03/18 16:15:48;;;;;;;17.05;8.77;;;14.10;71.20;;;;;;10138649;28;20115;-63
2022/03/18 16:20:38;;;;;;;13.23;7.88;;;14.20;71.20;;;;;;10132135;28;20119;-62
2022/03/18 16:25:29;;;;;;;16.15;8.82;;;14.20;71.20;;;;;;10137011;28;20020;-62
2022/03/18 16:30:20;;;;;;;14.18;8.15;;;14.00;71.30;;;;;;10110696;28;20028;-63
2022/03/18 16:35:13;;;;;;;16.13;8.82;;;13.80;71.70;;;;;;10129262;28;20043;-60
2022/03/18 16:40:05;;;;;;;17.85;9.38;;;13.60;72.10;;;;;;10138181;28;20021;-60
2022/03/18 16:44:59;;;;;;;16.30;8.38;;;13.50;72.30;;;;;;10136525;28;20071;-61
2022/03/18 16:49:51;;;;;;;16.05;9.43;;;13.40;72.50;;;;;;10135747;28;20056;-61
2022/03/18 16:54:44;;;;;;;12.30;7.97;;;13.10;72.80;;;;;;10121054;28;20035;-59
2022/03/18 16:59:35;;;;;;;16.60;9.57;;;13.10;73.00;;;;;;10133382;28;20694;-60
2022/03/18 17:04:26;;;;;;;18.23;9.35;;;13.00;73.00;;;;;;10133906;28;20052;-63
2022/03/18 17:09:19;;;;;;;13.70;9.13;;;13.00;73.40;;;;;;10119812;28;20069;-62
2022/03/18 17:14:10;;;;;;;18.30;9.48;;;12.90;74.20;;;;;;10120294;28;20538;-62
2022/03/18 17:19:02;;;;;;;15.77;9.27;;;12.80;73.80;;;;;;10135932;28;20033;-62
2022/03/18 17:23:54;;;;;;;16.15;8.88;;;12.70;74.50;;;;;;10138213;28;20052;-63
2022/03/18 17:28:45;;;;;;;15.82;8.30;;;12.50;74.90;;;;;;10142341;28;20379;-62
2022/03/18 17:33:37;;;;;;;14.32;8.02;;;12.40;75.20;;;;;;10130948;28;20025;-63
2022/03/18 17:38:27;;;;;;;20.17;8.75;;;12.40;75.60;;;;;;10141525;28;20021;-62
2022/03/18 17:43:20;;;;;;;16.33;8.02;;;12.30;75.70;;;;;;10139809;28;20352;-66
2022/03/18 17:48:11;;;;;;;15.52;8.60;;;12.20;76.00;;;;;;10130478;28;20059;-64
2022/03/18 17:53:02;;;;;;;16.48;8.32;;;12.20;76.70;;;;;;10142351;28;20040;-63
2022/03/18 17:57:53;;;;;;;17.92;8.15;;;12.10;77.20;;;;;;10142443;28;20469;-64
2022/03/18 18:02:44;;;;;;;14.60;7.38;;;12.00;77.40;;;;;;10144210;28;20329;-62
2022/03/18 18:07:35;;;;;;;14.57;8.50;;;12.00;77.70;;;;;;10141135;28;20021;-64
2022/03/18 18:12:26;;;;;;;14.85;7.70;;;11.90;77.80;;;;;;10143542;28;20058;-68
2022/03/18 18:17:17;;;;;;;13.85;7.85;;;11.90;78.10;;;;;;10129383;28;20067;-68
2022/03/18 18:22:10;;;;;;;13.73;8.40;;;11.90;78.50;;;;;;10142136;28;20037;-68
2022/03/18 18:27:02;;;;;;;13.07;7.50;;;11.80;78.80;;;;;;10137872;28;20212;-70
2022/03/18 18:31:53;;;;;;;14.75;7.85;;;11.80;78.90;;;;;;10139508;28;20036;-69
2022/03/18 18:36:46;;;;;;;19.17;7.72;;;11.70;79.20;;;;;;10137283;28;20107;-67
2022/03/18 18:41:37;;;;;;;14.57;7.85;;;11.70;79.20;;;;;;10133056;28;20115;-67
2022/03/18 18:46:27;;;;;;;13.20;8.57;;;11.70;79.30;;;;;;10124884;28;20067;-67
2022/03/18 18:51:20;;;;;;;16.80;8.23;;;11.60;79.60;;;;;;10140705;28;20863;-67
2022/03/18 18:56:11;;;;;;;18.80;8.65;;;11.60;79.60;;;;;;10119774;28;20021;-68
2022/03/18 19:01:02;;;;;;;16.55;7.88;;;11.60;79.80;;;;;;10126065;28;20044;-67
2022/03/18 19:05:55;;;;;;;16.33;9.07;;;11.50;80.00;;;;;;10143214;28;20060;-67
2022/03/18 19:10:45;;;;;;;19.27;8.60;;;11.40;80.30;;;;;;10142869;28;20062;-68
2022/03/18 19:15:38;;;;;;;21.10;8.68;;;11.40;80.60;;;;;;10135186;28;20266;-69
2022/03/18 19:20:29;;;;;;;16.15;9.52;;;11.30;80.70;;;;;;10134478;28;20693;-66
2022/03/18 19:25:20;;;;;;;19.45;9.93;;;11.30;81.10;;;;;;10141675;28;20104;-67
2022/03/18 19:30:12;;;;;;;19.00;9.75;;;11.20;81.30;;;;;;10139118;28;20035;-68
2022/03/18 19:35:05;;;;;;;20.45;10.13;;;11.20;81.50;;;;;;10120444;28;20043;-68
2022/03/18 19:39:55;;;;;;;22.27;11.55;;;11.10;81.50;;;;;;10131904;28;20028;-68
2022/03/18 19:44:46;;;;;;;25.13;11.15;;;11.10;81.80;;;;;;10139377;28;20028;-68
2022/03/18 19:49:37;;;;;;;24.42;9.77;;;11.00;81.90;;;;;;10135657;28;20068;-68
2022/03/18 19:54:28;;;;;;;16.40;10.00;;;11.00;82.00;;;;;;10138837;28;20028;-70
2022/03/18 20:04:30;;;;;;;28.83;11.90;;;10.90;82.50;;;;;;10126714;28;20532;-70
2022/03/18 20:09:21;;;;;;;21.05;10.07;;;10.90;82.70;;;;;;10104893;28;20039;-72
2022/03/18 20:14:13;;;;;;;25.75;13.20;;;10.80;82.90;;;;;;10136700;28;20068;-72
2022/03/18 20:19:04;;;;;;;22.10;11.43;;;10.80;83.00;;;;;;10136989;28;20012;-68
2022/03/18 20:23:55;;;;;;;19.90;10.57;;;10.70;83.30;;;;;;10133910;28;20028;-70
2022/03/18 20:28:46;;;;;;;22.90;11.88;;;10.70;83.50;;;;;;10134917;28;20032;-71
2022/03/18 20:33:38;;;;;;;21.17;10.43;;;10.60;83.60;;;;;;10136198;28;20028;-70
2022/03/18 20:38:29;;;;;;;23.33;11.70;;;10.60;83.70;;;;;;10137139;28;20116;-70
2022/03/18 20:43:22;;;;;;;26.95;13.43;;;10.50;84.00;;;;;;10137510;28;20067;-73
2022/03/18 20:48:14;;;;;;;22.58;11.25;;;10.50;84.20;;;;;;10122699;28;20124;-70
2022/03/18 20:53:06;;;;;;;25.70;12.75;;;10.40;84.40;;;;;;10137072;28;20517;-69
2022/03/18 20:57:56;;;;;;;21.05;11.45;;;10.40;84.50;;;;;;10119106;28;20078;-69
2022/03/18 21:02:51;;;;;;;25.08;12.68;;;10.30;84.70;;;;;;10136917;28;20695;-69
2022/03/18 21:07:43;;;;;;;;;;;10.30;84.90;;;;;;10134871;28;20049;-68
2022/03/18 21:12:34;;;;;;;25.20;12.43;;;10.20;86.00;;;;;;10132316;28;19912;-69
2022/03/18 21:17:25;;;;;;;23.33;11.55;;;10.10;85.40;;;;;;10139569;28;20449;-67
2022/03/18 21:22:16;;;;;;;26.50;11.98;;;10.10;85.30;;;;;;10129666;28;20044;-72
2022/03/18 21:32:18;;;;;;;22.13;11.80;;;10.00;85.80;;;;;;10131764;28;20044;-69
2022/03/18 21:37:08;;;;;;;28.02;12.00;;;9.90;86.10;;;;;;10133686;28;20048;-70
2022/03/18 21:42:00;;;;;;;25.05;12.70;;;9.90;85.90;;;;;;10128230;28;20033;-71
2022/03/18 21:46:51;;;;;;;29.65;12.82;;;9.80;86.20;;;;;;10129954;28;20040;-70
2022/03/18 21:51:41;;;;;;;25.90;12.40;;;9.80;86.40;;;;;;10129274;28;20028;-71
2022/03/18 21:56:45;;;;;;;28.25;13.95;;;9.70;86.70;;;;;;10136391;28;20028;-73
2022/03/18 22:01:36;;;;;;;24.80;12.65;;;9.60;86.90;;;;;;10140107;28;20444;-71
2022/03/18 22:06:27;;;;;;;29.35;14.23;;;9.60;87.00;;;;;;10118234;28;20048;-69
2022/03/18 22:11:18;;;;;;;26.08;14.18;;;9.50;87.40;;;;;;10139186;28;20094;-70
2022/03/18 22:16:09;;;;;;;25.02;12.80;;;9.40;87.50;;;;;;10124890;28;20029;-70
2022/03/18 22:21:01;;;;;;;24.75;12.02;;;9.40;87.70;;;;;;10136651;28;20037;-72
2022/03/18 22:25:52;;;;;;;26.10;13.07;;;9.30;87.90;;;;;;10139099;28;20059;-70
2022/03/18 22:30:43;;;;;;;25.90;12.57;;;9.30;87.80;;;;;;10141528;28;20494;-68
2022/03/18 22:35:33;;;;;;;30.42;14.85;;;9.30;88.10;;;;;;10138893;28;20032;-69
2022/03/18 22:40:24;;;;;;;26.33;12.85;;;9.20;88.10;;;;;;10143291;28;20068;-66
2022/03/18 22:45:15;;;;;;;29.75;15.27;;;9.20;88.30;;;;;;10145383;28;20040;-67
2022/03/18 22:50:07;;;;;;;26.67;13.93;;;9.20;88.40;;;;;;10134917;28;20040;-66
2022/03/18 22:54:58;;;;;;;31.38;14.00;;;9.20;88.40;;;;;;10142888;28;20027;-71
2022/03/18 22:59:49;;;;;;;29.25;15.32;;;9.10;88.60;;;;;;10128163;28;20116;-68
2022/03/18 23:04:40;;;;;;;33.78;15.02;;;9.00;89.00;;;;;;10141995;28;20032;-70
2022/03/18 23:09:31;;;;;;;33.08;16.85;;;8.90;89.10;;;;;;10136249;28;20039;-68
2022/03/18 23:14:22;;;;;;;32.95;14.25;;;8.90;89.10;;;;;;10136323;28;20028;-69
2022/03/18 23:19:13;;;;;;;27.17;12.98;;;8.80;89.30;;;;;;10138033;28;20415;-69
2022/03/18 23:24:04;;;;;;;31.52;14.30;;;8.70;89.70;;;;;;10139602;28;20327;-68
2022/03/18 23:28:56;;;;;;;30.88;15.93;;;8.60;90.00;;;;;;10132965;28;20029;-68
2022/03/18 23:33:47;;;;;;;28.83;13.60;;;8.50;90.00;;;;;;10137696;28;20490;-68
2022/03/18 23:38:38;;;;;;;32.90;16.98;;;8.50;90.20;;;;;;10139193;28;20117;-69
2022/03/18 23:43:28;;;;;;;31.25;13.32;;;8.50;90.10;;;;;;10125527;28;20032;-70
2022/03/18 23:48:19;;;;;;;30.55;14.80;;;8.40;90.30;;;;;;10136905;28;20043;-68
2022/03/18 23:53:10;;;;;;;29.17;15.82;;;8.40;90.30;;;;;;10136268;28;20048;-68
2022/03/18 23:58:00;;;;;;;33.95;15.15;;;8.40;90.20;;;;;;10137738;28;20028;-68
